Startpagina
METAR-TAF:

METAR-TAF

Vliegvelden :

Vliegbasis Deelen

Arnhem, Nederland

breedte: 52-04N, lengte: 005-53E, hoogte: 48 m

Actueel weer

Dit bericht is 29 minuten geleden gemaakt, om 12:25 UTC
Wind 9 kt uit variabele richting
Temperatuur 23°C
Vochtigheid 41%
Druk 1022 hPa
Zicht 10 km of meer

METAR: EHDL 151225Z AUTO VRB09KT 9999 NCD 23/09 Q1022 BLU

Tijdstip: 14:54 (12:54 UTC)


TAF: ontbreekt

Waarnemingen en weersverwachtingen van meer dan 4000 vliegvelden (METAR en TAF).

De beschikbare stations zijn de gele en rode punten op de kaart.

Ga met uw muis naar het station om de naam te zien.

Klik dan om waarnemingen en weersverwachtingen te zien.

kaart wijzigen: klik op de groene knoppen met een zwart kruis om in te zoomen, op de groene knop met een streepje om uit te zoomen of op de groene pijlen voor aangrenzende kaarten.


METAR-TAF: